sensor_id;sensor_type;location;lat;lon;timestamp;pressure;altitude;pressure_sealevel;temperature;humidity
28935;BME280;16044;52.726;-2.108;2023-02-28T00:01:31;102487.78;;;5.39;100.00
28935;BME280;16044;52.726;-2.108;2023-02-28T00:03:59;102484.28;;;5.37;100.00
28935;BME280;16044;52.726;-2.108;2023-02-28T00:06:27;102486.03;;;5.38;100.00
28935;BME280;16044;52.726;-2.108;2023-02-28T00:08:55;102494.88;;;5.40;99.82
28935;BME280;16044;52.726;-2.108;2023-02-28T00:11:21;102489.66;;;5.37;100.00
28935;BME280;16044;52.726;-2.108;2023-02-28T00:13:49;102492.19;;;5.40;99.93
28935;BME280;16044;52.726;-2.108;2023-02-28T00:16:20;102492.19;;;5.40;99.92
28935;BME280;16044;52.726;-2.108;2023-02-28T00:18:48;102501.00;;;5.42;99.78
28935;BME280;16044;52.726;-2.108;2023-02-28T00:21:17;102495.03;;;5.37;100.00
28935;BME280;16044;52.726;-2.108;2023-02-28T00:23:45;102497.84;;;5.35;100.00
28935;BME280;16044;52.726;-2.108;2023-02-28T00:26:13;102499.66;;;5.35;100.00
28935;BME280;16044;52.726;-2.108;2023-02-28T00:28:40;102496.88;;;5.36;100.00
28935;BME280;16044;52.726;-2.108;2023-02-28T00:31:07;102507.53;;;5.38;100.00
28935;BME280;16044;52.726;-2.108;2023-02-28T00:33:34;102496.97;;;5.35;100.00
28935;BME280;16044;52.726;-2.108;2023-02-28T00:36:05;102498.78;;;5.34;100.00
28935;BME280;16044;52.726;-2.108;2023-02-28T00:38:34;102499.66;;;5.35;100.00
28935;BME280;16044;52.726;-2.108;2023-02-28T00:41:01;102506.00;;;5.34;100.00
28935;BME280;16044;52.726;-2.108;2023-02-28T00:43:35;102507.16;;;5.30;100.00
28935;BME280;16044;52.726;-2.108;2023-02-28T00:46:06;102502.34;;;5.35;100.00
28935;BME280;16044;52.726;-2.108;2023-02-28T00:48:33;102501.47;;;5.34;100.00
28935;BME280;16044;52.726;-2.108;2023-02-28T00:51:00;102495.94;;;5.37;100.00
28935;BME280;16044;52.726;-2.108;2023-02-28T00:53:31;102496.97;;;5.35;100.00
28935;BME280;16044;52.726;-2.108;2023-02-28T00:55:59;102497.66;;;5.38;100.00
28935;BME280;16044;52.726;-2.108;2023-02-28T00:58:26;102500.34;;;5.38;100.00
28935;BME280;16044;52.726;-2.108;2023-02-28T01:00:54;102500.53;;;5.35;100.00
28935;BME280;16044;52.726;-2.108;2023-02-28T01:03:23;102512.31;;;5.33;100.00
28935;BME280;16044;52.726;-2.108;2023-02-28T01:05:51;102509.56;;;5.34;100.00
28935;BME280;16044;52.726;-2.108;2023-02-28T01:08:19;102518.25;;;5.23;100.00
28935;BME280;16044;52.726;-2.108;2023-02-28T01:10:46;102506.38;;;5.27;100.00
28935;BME280;16044;52.726;-2.108;2023-02-28T01:13:15;102514.34;;;5.29;100.00
28935;BME280;16044;52.726;-2.108;2023-02-28T01:15:50;102515.41;;;5.26;100.00
28935;BME280;16044;52.726;-2.108;2023-02-28T01:18:18;102505.78;;;5.22;100.00
28935;BME280;16044;52.726;-2.108;2023-02-28T01:20:45;102509.25;;;5.24;100.00
28935;BME280;16044;52.726;-2.108;2023-02-28T01:23:12;102515.69;;;5.22;100.00
28935;BME280;16044;52.726;-2.108;2023-02-28T01:25:39;102512.31;;;5.18;100.00
28935;BME280;16044;52.726;-2.108;2023-02-28T01:28:09;102522.88;;;5.21;100.00
28935;BME280;16044;52.726;-2.108;2023-02-28T01:30:36;102522.09;;;5.19;100.00
28935;BME280;16044;52.726;-2.108;2023-02-28T01:33:03;102519.50;;;5.18;100.00
28935;BME280;16044;52.726;-2.108;2023-02-28T01:35:34;102527.66;;;5.16;100.00
28935;BME280;16044;52.726;-2.108;2023-02-28T01:38:02;102537.28;;;5.20;100.00
28935;BME280;16044;52.726;-2.108;2023-02-28T01:40:51;102530.38;;;5.16;100.00
28935;BME280;16044;52.726;-2.108;2023-02-28T01:43:25;102523.06;;;5.18;100.00
28935;BME280;16044;52.726;-2.108;2023-02-28T01:46:04;102532.28;;;5.14;100.00
28935;BME280;16044;52.726;-2.108;2023-02-28T01:48:35;102523.25;;;5.15;100.00
28935;BME280;16044;52.726;-2.108;2023-02-28T01:51:09;102533.22;;;5.13;100.00
28935;BME280;16044;52.726;-2.108;2023-02-28T01:53:45;102531.38;;;5.14;100.00
28935;BME280;16044;52.726;-2.108;2023-02-28T01:56:19;102528.22;;;5.07;100.00
28935;BME280;16044;52.726;-2.108;2023-02-28T01:58:50;102522.75;;;5.08;100.00
28935;BME280;16044;52.726;-2.108;2023-02-28T02:01:20;102517.53;;;5.05;100.00
28935;BME280;16044;52.726;-2.108;2023-02-28T02:03:53;102527.25;;;5.08;100.00
28935;BME280;16044;52.726;-2.108;2023-02-28T02:06:35;102527.63;;;5.02;100.00
28935;BME280;16044;52.726;-2.108;2023-02-28T02:09:07;102530.00;;;5.06;100.00
28935;BME280;16044;52.726;-2.108;2023-02-28T02:11:35;102525.88;;;5.01;100.00
28935;BME280;16044;52.726;-2.108;2023-02-28T02:20:32;102526.06;;;4.98;100.00
28935;BME280;16044;52.726;-2.108;2023-02-28T02:35:38;102520.25;;;4.89;100.00
28935;BME280;16044;52.726;-2.108;2023-02-28T02:41:08;102513.25;;;4.87;100.00
28935;BME280;16044;52.726;-2.108;2023-02-28T02:43:46;102501.66;;;4.86;100.00
28935;BME280;16044;52.726;-2.108;2023-02-28T02:46:20;102509.69;;;4.86;100.00
28935;BME280;16044;52.726;-2.108;2023-02-28T02:49:13;102506.25;;;4.84;100.00
28935;BME280;16044;52.726;-2.108;2023-02-28T02:51:49;102511.53;;;4.86;100.00
28935;BME280;16044;52.726;-2.108;2023-02-28T02:54:25;102511.69;;;4.83;100.00
28935;BME280;16044;52.726;-2.108;2023-02-28T02:57:01;102501.72;;;4.85;100.00
28935;BME280;16044;52.726;-2.108;2023-02-28T02:59:37;102504.59;;;4.82;100.00
28935;BME280;16044;52.726;-2.108;2023-02-28T03:02:12;102504.59;;;4.82;100.00
28935;BME280;16044;52.726;-2.108;2023-02-28T03:04:53;102511.88;;;4.80;100.00
28935;BME280;16044;52.726;-2.108;2023-02-28T03:07:27;102504.34;;;4.86;100.00
28935;BME280;16044;52.726;-2.108;2023-02-28T03:09:56;102511.78;;;4.81;100.00
28935;BME280;16044;52.726;-2.108;2023-02-28T03:12:33;102507.38;;;4.80;100.00
28935;BME280;16044;52.726;-2.108;2023-02-28T03:15:18;102509.94;;;4.82;100.00
28935;BME280;16044;52.726;-2.108;2023-02-28T03:18:58;102505.81;;;4.76;100.00
28935;BME280;16044;52.726;-2.108;2023-02-28T03:21:25;102510.25;;;4.77;100.00
28935;BME280;16044;52.726;-2.108;2023-02-28T03:27:23;102501.72;;;4.85;100.00
28935;BME280;16044;52.726;-2.108;2023-02-28T03:30:05;102509.88;;;4.83;100.00
28935;BME280;16044;52.726;-2.108;2023-02-28T03:33:03;102508.50;;;4.76;100.00
28935;BME280;16044;52.726;-2.108;2023-02-28T03:35:36;102510.16;;;4.79;100.00
28935;BME280;16044;52.726;-2.108;2023-02-28T03:38:38;102514.06;;;4.73;100.00
28935;BME280;16044;52.726;-2.108;2023-02-28T03:41:19;102508.69;;;4.73;100.00
28935;BME280;16044;52.726;-2.108;2023-02-28T03:43:55;102510.41;;;4.74;100.00
28935;BME280;16044;52.726;-2.108;2023-02-28T03:46:27;102519.16;;;4.78;100.00
28935;BME280;16044;52.726;-2.108;2023-02-28T03:49:07;102512.94;;;4.77;100.00
28935;BME280;16044;52.726;-2.108;2023-02-28T03:51:41;102508.59;;;4.75;100.00
28935;BME280;16044;52.726;-2.108;2023-02-28T03:54:13;102508.78;;;4.72;100.00
28935;BME280;16044;52.726;-2.108;2023-02-28T03:56:59;102512.31;;;4.72;100.00
28935;BME280;16044;52.726;-2.108;2023-02-28T03:59:44;102515.97;;;4.71;100.00
28935;BME280;16044;52.726;-2.108;2023-02-28T04:02:14;102522.13;;;4.73;100.00
28935;BME280;16044;52.726;-2.108;2023-02-28T04:04:41;102517.59;;;4.74;100.00
28935;BME280;16044;52.726;-2.108;2023-02-28T04:07:12;102510.53;;;4.73;100.00
28935;BME280;16044;52.726;-2.108;2023-02-28T04:09:38;102515.00;;;4.72;100.00
28935;BME280;16044;52.726;-2.108;2023-02-28T04:12:06;102513.28;;;4.71;100.00
28935;BME280;16044;52.726;-2.108;2023-02-28T04:14:33;102512.59;;;4.67;100.00
28935;BME280;16044;52.726;-2.108;2023-02-28T04:17:00;102521.69;;;4.65;100.00
28935;BME280;16044;52.726;-2.108;2023-02-28T04:19:27;102510.00;;;4.66;100.00
28935;BME280;16044;52.726;-2.108;2023-02-28T04:21:54;102510.94;;;4.65;100.00
28935;BME280;16044;52.726;-2.108;2023-02-28T04:24:24;102507.75;;;4.58;100.00
28935;BME280;16044;52.726;-2.108;2023-02-28T04:26:54;102509.66;;;4.56;100.00
28935;BME280;16044;52.726;-2.108;2023-02-28T04:29:31;102508.97;;;4.53;100.00
28935;BME280;16044;52.726;-2.108;2023-02-28T04:31:59;102519.19;;;4.46;100.00
28935;BME280;16044;52.726;-2.108;2023-02-28T04:34:29;102514.84;;;4.43;100.00
28935;BME280;16044;52.726;-2.108;2023-02-28T04:36:57;102518.50;;;4.42;100.00
28935;BME280;16044;52.726;-2.108;2023-02-28T04:39:43;102513.22;;;4.41;100.00
28935;BME280;16044;52.726;-2.108;2023-02-28T04:42:13;102515.91;;;4.41;100.00
28935;BME280;16044;52.726;-2.108;2023-02-28T04:44:40;102521.19;;;4.42;100.00
28935;BME280;16044;52.726;-2.108;2023-02-28T04:47:07;102523.69;;;4.45;100.00
28935;BME280;16044;52.726;-2.108;2023-02-28T04:49:33;102530.03;;;4.44;100.00
28935;BME280;16044;52.726;-2.108;2023-02-28T04:52:01;102524.56;;;4.46;100.00
28935;BME280;16044;52.726;-2.108;2023-02-28T04:54:28;102529.25;;;4.42;100.00
28935;BME280;16044;52.726;-2.108;2023-02-28T04:56:56;102532.72;;;4.44;100.00
28935;BME280;16044;52.726;-2.108;2023-02-28T04:59:23;102528.44;;;4.40;100.00
28935;BME280;16044;52.726;-2.108;2023-02-28T05:01:53;102539.03;;;4.43;100.00
28935;BME280;16044;52.726;-2.108;2023-02-28T05:04:20;102521.34;;;4.39;100.00
28935;BME280;16044;52.726;-2.108;2023-02-28T05:06:47;102522.22;;;4.40;100.00
28935;BME280;16044;52.726;-2.108;2023-02-28T05:09:14;102531.31;;;4.37;100.00
28935;BME280;16044;52.726;-2.108;2023-02-28T05:11:41;102532.09;;;4.39;100.00
28935;BME280;16044;52.726;-2.108;2023-02-28T05:14:13;102531.47;;;4.34;100.00
28935;BME280;16044;52.726;-2.108;2023-02-28T05:16:40;102530.53;;;4.35;100.00
28935;BME280;16044;52.726;-2.108;2023-02-28T05:19:08;102529.00;;;4.31;100.00
28935;BME280;16044;52.726;-2.108;2023-02-28T05:21:40;102532.50;;;4.16;100.00
28935;BME280;16044;52.726;-2.108;2023-02-28T05:24:11;102532.88;;;4.25;100.00
28935;BME280;16044;52.726;-2.108;2023-02-28T05:26:41;102530.19;;;4.25;100.00
28935;BME280;16044;52.726;-2.108;2023-02-28T05:29:09;102528.38;;;4.26;100.00
28935;BME280;16044;52.726;-2.108;2023-02-28T05:31:37;102528.72;;;4.20;100.00
28935;BME280;16044;52.726;-2.108;2023-02-28T05:34:04;102533.66;;;4.27;100.00
28935;BME280;16044;52.726;-2.108;2023-02-28T05:36:32;102529.22;;;4.26;100.00
28935;BME280;16044;52.726;-2.108;2023-02-28T05:38:59;102535.38;;;4.28;100.00
28935;BME280;16044;52.726;-2.108;2023-02-28T05:41:26;102533.91;;;4.23;100.00
28935;BME280;16044;52.726;-2.108;2023-02-28T05:43:53;102540.75;;;4.28;100.00
28935;BME280;16044;52.726;-2.108;2023-02-28T05:46:20;102538.91;;;4.29;100.00
28935;BME280;16044;52.726;-2.108;2023-02-28T05:48:47;102537.19;;;4.28;100.00
28935;BME280;16044;52.726;-2.108;2023-02-28T05:51:15;102538.91;;;4.29;100.00
28935;BME280;16044;52.726;-2.108;2023-02-28T05:53:43;102538.06;;;4.28;100.00
28935;BME280;16044;52.726;-2.108;2023-02-28T05:56:10;102539.03;;;4.27;100.00
28935;BME280;16044;52.726;-2.108;2023-02-28T05:58:37;102542.56;;;4.28;100.00
28935;BME280;16044;52.726;-2.108;2023-02-28T06:04:09;102540.94;;;4.25;100.00
28935;BME280;16044;52.726;-2.108;2023-02-28T06:06:54;102547.31;;;4.23;100.00
28935;BME280;16044;52.726;-2.108;2023-02-28T06:09:24;102539.47;;;4.20;100.00
28935;BME280;16044;52.726;-2.108;2023-02-28T06:11:51;102550.19;;;4.20;100.00
28935;BME280;16044;52.726;-2.108;2023-02-28T06:14:19;102540.41;;;4.19;100.00
28935;BME280;16044;52.726;-2.108;2023-02-28T06:16:47;102551.91;;;4.21;100.00
28935;BME280;16044;52.726;-2.108;2023-02-28T06:19:14;102549.38;;;4.18;100.00
28935;BME280;16044;52.726;-2.108;2023-02-28T06:21:42;102548.44;;;4.19;100.00
28935;BME280;16044;52.726;-2.108;2023-02-28T06:24:10;102552.25;;;4.15;100.00
28935;BME280;16044;52.726;-2.108;2023-02-28T06:26:37;102555.66;;;4.18;100.00
28935;BME280;16044;52.726;-2.108;2023-02-28T06:29:04;102558.31;;;4.18;100.00
28935;BME280;16044;52.726;-2.108;2023-02-28T06:31:31;102556.50;;;4.19;100.00
28935;BME280;16044;52.726;-2.108;2023-02-28T06:33:59;102568.16;;;4.18;100.00
28935;BME280;16044;52.726;-2.108;2023-02-28T06:36:25;102571.66;;;4.20;100.00
28935;BME280;16044;52.726;-2.108;2023-02-28T06:38:52;102562.72;;;4.19;100.00
28935;BME280;16044;52.726;-2.108;2023-02-28T06:41:23;102568.72;;;4.24;100.00
28935;BME280;16044;52.726;-2.108;2023-02-28T06:43:52;102563.50;;;4.21;100.00
28935;BME280;16044;52.726;-2.108;2023-02-28T06:46:19;102562.66;;;4.21;100.00
28935;BME280;16044;52.726;-2.108;2023-02-28T06:48:46;102567.94;;;4.22;100.00
28935;BME280;16044;52.726;-2.108;2023-02-28T06:51:19;102565.19;;;4.24;100.00
28935;BME280;16044;52.726;-2.108;2023-02-28T06:53:48;102564.28;;;4.23;100.00
28935;BME280;16044;52.726;-2.108;2023-02-28T06:56:17;102563.34;;;4.24;100.00
28935;BME280;16044;52.726;-2.108;2023-02-28T06:58:49;102563.88;;;4.31;100.00
28935;BME280;16044;52.726;-2.108;2023-02-28T07:01:17;102564.81;;;4.30;100.00
28935;BME280;16044;52.726;-2.108;2023-02-28T07:03:45;102574.63;;;4.31;100.00
28935;BME280;16044;52.726;-2.108;2023-02-28T07:06:13;102577.47;;;4.28;100.00
28935;BME280;16044;52.726;-2.108;2023-02-28T07:08:40;102568.44;;;4.29;100.00
28935;BME280;16044;52.726;-2.108;2023-02-28T07:11:07;102565.59;;;4.32;100.00
28935;BME280;16044;52.726;-2.108;2023-02-28T07:13:35;102570.03;;;4.33;100.00
28935;BME280;16044;52.726;-2.108;2023-02-28T07:16:05;102585.38;;;4.31;100.00
28935;BME280;16044;52.726;-2.108;2023-02-28T07:18:33;102586.75;;;4.38;100.00
28935;BME280;16044;52.726;-2.108;2023-02-28T07:21:05;102591.00;;;4.42;100.00
28935;BME280;16044;52.726;-2.108;2023-02-28T07:23:34;102586.44;;;4.44;100.00
28935;BME280;16044;52.726;-2.108;2023-02-28T07:26:01;102588.34;;;4.42;100.00
28935;BME280;16044;52.726;-2.108;2023-02-28T07:28:28;102596.97;;;4.47;100.00
28935;BME280;16044;52.726;-2.108;2023-02-28T07:30:55;102588.13;;;4.45;100.00
28935;BME280;16044;52.726;-2.108;2023-02-28T07:33:22;102599.56;;;4.49;100.00
28935;BME280;16044;52.726;-2.108;2023-02-28T07:35:50;102598.53;;;4.52;100.00
28935;BME280;16044;52.726;-2.108;2023-02-28T07:38:17;102594.13;;;4.51;100.00
28935;BME280;16044;52.726;-2.108;2023-02-28T07:40:44;102599.31;;;4.54;100.00
28935;BME280;16044;52.726;-2.108;2023-02-28T07:43:11;102602.09;;;4.52;100.00
28935;BME280;16044;52.726;-2.108;2023-02-28T07:45:38;102594.56;;;4.59;100.00
28935;BME280;16044;52.726;-2.108;2023-02-28T07:48:05;102602.63;;;4.59;100.00
28935;BME280;16044;52.726;-2.108;2023-02-28T07:50:32;102603.22;;;4.64;100.00
28935;BME280;16044;52.726;-2.108;2023-02-28T07:52:59;102604.09;;;4.64;100.00
28935;BME280;16044;52.726;-2.108;2023-02-28T07:55:26;102603.06;;;4.67;100.00
28935;BME280;16044;52.726;-2.108;2023-02-28T07:57:53;102597.69;;;4.67;100.00
28935;BME280;16044;52.726;-2.108;2023-02-28T08:00:21;102599.41;;;4.68;100.00
28935;BME280;16044;52.726;-2.108;2023-02-28T08:02:48;102598.47;;;4.69;100.00
28935;BME280;16044;52.726;-2.108;2023-02-28T08:05:15;102606.44;;;4.71;100.00
28935;BME280;16044;52.726;-2.108;2023-02-28T08:07:44;102602.72;;;4.73;100.00
28935;BME280;16044;52.726;-2.108;2023-02-28T08:10:11;102608.00;;;4.75;100.00
28935;BME280;16044;52.726;-2.108;2023-02-28T08:12:38;102604.44;;;4.74;100.00
28935;BME280;16044;52.726;-2.108;2023-02-28T08:15:05;102595.28;;;4.78;100.00
28935;BME280;16044;52.726;-2.108;2023-02-28T08:17:32;102605.22;;;4.76;100.00
28935;BME280;16044;52.726;-2.108;2023-02-28T08:20:00;102594.38;;;4.78;100.00
28935;BME280;16044;52.726;-2.108;2023-02-28T08:22:27;102598.72;;;4.80;100.00
28935;BME280;16044;52.726;-2.108;2023-02-28T08:24:54;102605.59;;;4.86;100.00
28935;BME280;16044;52.726;-2.108;2023-02-28T08:27:21;102605.13;;;4.94;100.00
28935;BME280;16044;52.726;-2.108;2023-02-28T08:29:48;102597.84;;;4.96;100.00
28935;BME280;16044;52.726;-2.108;2023-02-28T08:32:15;102595.94;;;4.98;100.00
28935;BME280;16044;52.726;-2.108;2023-02-28T08:34:55;102595.09;;;4.97;100.00
28935;BME280;16044;52.726;-2.108;2023-02-28T08:37:22;102601.94;;;5.03;100.00
28935;BME280;16044;52.726;-2.108;2023-02-28T08:39:48;102605.47;;;5.03;100.00
28935;BME280;16044;52.726;-2.108;2023-02-28T08:42:15;102602.78;;;5.03;100.00
28935;BME280;16044;52.726;-2.108;2023-02-28T08:44:42;102599.41;;;5.00;100.00
28935;BME280;16044;52.726;-2.108;2023-02-28T08:47:10;102592.66;;;5.08;100.00
28935;BME280;16044;52.726;-2.108;2023-02-28T08:49:37;102593.91;;;5.17;100.00
28935;BME280;16044;52.726;-2.108;2023-02-28T08:52:04;102598.16;;;5.21;100.00
28935;BME280;16044;52.726;-2.108;2023-02-28T08:54:31;102592.44;;;5.27;100.00
28935;BME280;16044;52.726;-2.108;2023-02-28T08:56:59;102593.88;;;5.33;100.00
28935;BME280;16044;52.726;-2.108;2023-02-28T08:59:26;102594.38;;;5.40;100.00
28935;BME280;16044;52.726;-2.108;2023-02-28T09:01:54;102593.22;;;5.44;100.00
28935;BME280;16044;52.726;-2.108;2023-02-28T09:04:22;102593.44;;;5.41;100.00
28935;BME280;16044;52.726;-2.108;2023-02-28T09:06:50;102600.16;;;5.48;100.00
28935;BME280;16044;52.726;-2.108;2023-02-28T09:09:17;102597.19;;;5.53;100.00
28935;BME280;16044;52.726;-2.108;2023-02-28T09:11:44;102609.34;;;5.60;100.00
28935;BME280;16044;52.726;-2.108;2023-02-28T09:14:11;102592.81;;;5.66;100.00
28935;BME280;16044;52.726;-2.108;2023-02-28T09:16:38;102588.28;;;5.66;100.00
28935;BME280;16044;52.726;-2.108;2023-02-28T09:19:05;102595.41;;;5.68;100.00
28935;BME280;16044;52.726;-2.108;2023-02-28T09:21:32;102594.09;;;5.75;100.00
28935;BME280;16044;52.726;-2.108;2023-02-28T09:23:59;102593.19;;;5.74;100.00
28935;BME280;16044;52.726;-2.108;2023-02-28T09:26:27;102598.66;;;5.73;100.00
28935;BME280;16044;52.726;-2.108;2023-02-28T09:29:08;102601.47;;;5.71;100.00
28935;BME280;16044;52.726;-2.108;2023-02-28T09:31:34;102597.81;;;5.72;100.00
28935;BME280;16044;52.726;-2.108;2023-02-28T09:34:01;102605.88;;;5.72;100.00
28935;BME280;16044;52.726;-2.108;2023-02-28T09:36:30;102605.41;;;5.80;100.00
28935;BME280;16044;52.726;-2.108;2023-02-28T09:39:10;102597.66;;;5.90;100.00
28935;BME280;16044;52.726;-2.108;2023-02-28T09:41:42;102605.31;;;5.97;100.00
28935;BME280;16044;52.726;-2.108;2023-02-28T09:44:42;102604.16;;;6.01;100.00
28935;BME280;16044;52.726;-2.108;2023-02-28T09:47:33;102599.31;;;6.07;100.00
28935;BME280;16044;52.726;-2.108;2023-02-28T09:52:54;102598.97;;;6.13;100.00
28935;BME280;16044;52.726;-2.108;2023-02-28T09:58:00;102603.69;;;6.09;100.00
28935;BME280;16044;52.726;-2.108;2023-02-28T10:03:44;102599.81;;;5.99;100.00
28935;BME280;16044;52.726;-2.108;2023-02-28T10:09:00;102614.38;;;5.95;100.00
28935;BME280;16044;52.726;-2.108;2023-02-28T10:11:32;102612.66;;;5.94;100.00
28935;BME280;16044;52.726;-2.108;2023-02-28T10:14:13;102607.09;;;5.97;100.00
28935;BME280;16044;52.726;-2.108;2023-02-28T10:16:57;102608.66;;;6.01;100.00
28935;BME280;16044;52.726;-2.108;2023-02-28T10:22:54;102603.88;;;6.20;100.00
28935;BME280;16044;52.726;-2.108;2023-02-28T10:25:26;102607.41;;;6.21;100.00
28935;BME280;16044;52.726;-2.108;2023-02-28T10:28:15;102603.38;;;6.28;100.00
28935;BME280;16044;52.726;-2.108;2023-02-28T10:30:50;102604.53;;;6.38;100.00
28935;BME280;16044;52.726;-2.108;2023-02-28T10:33:31;102603.09;;;6.47;100.00
28935;BME280;16044;52.726;-2.108;2023-02-28T10:36:03;102593.06;;;6.49;100.00
28935;BME280;16044;52.726;-2.108;2023-02-28T10:38:38;102593.53;;;6.56;100.00
28935;BME280;16044;52.726;-2.108;2023-02-28T10:41:12;102592.75;;;6.54;100.00
28935;BME280;16044;52.726;-2.108;2023-02-28T10:43:44;102597.47;;;6.64;100.00
28935;BME280;16044;52.726;-2.108;2023-02-28T10:46:16;102594.41;;;6.56;100.00
28935;BME280;16044;52.726;-2.108;2023-02-28T10:49:07;102601.41;;;6.59;100.00
28935;BME280;16044;52.726;-2.108;2023-02-28T10:51:41;102591.97;;;6.66;100.00
28935;BME280;16044;52.726;-2.108;2023-02-28T10:54:35;102596.38;;;6.67;100.00
28935;BME280;16044;52.726;-2.108;2023-02-28T10:57:08;102586.22;;;6.58;98.14
28935;BME280;16044;52.726;-2.108;2023-02-28T10:59:51;102587.34;;;6.68;97.20
28935;BME280;16044;52.726;-2.108;2023-02-28T11:02:36;102591.38;;;6.75;95.84
28935;BME280;16044;52.726;-2.108;2023-02-28T11:05:23;102589.03;;;6.83;95.32
28935;BME280;16044;52.726;-2.108;2023-02-28T11:08:16;102589.28;;;6.93;94.42
28935;BME280;16044;52.726;-2.108;2023-02-28T11:10:57;102592.88;;;6.94;92.82
28935;BME280;16044;52.726;-2.108;2023-02-28T11:13:29;102592.16;;;7.05;93.63
28935;BME280;16044;52.726;-2.108;2023-02-28T11:16:03;102589.69;;;7.14;92.04
28935;BME280;16044;52.726;-2.108;2023-02-28T11:24:01;102573.00;;;7.22;88.97
28935;BME280;16044;52.726;-2.108;2023-02-28T11:26:38;102573.50;;;7.14;89.17
28935;BME280;16044;52.726;-2.108;2023-02-28T11:29:25;102576.03;;;7.17;88.38
28935;BME280;16044;52.726;-2.108;2023-02-28T11:34:38;102575.06;;;7.18;89.06
28935;BME280;16044;52.726;-2.108;2023-02-28T11:37:11;102569.25;;;7.25;88.14
28935;BME280;16044;52.726;-2.108;2023-02-28T11:39:40;102561.44;;;7.20;88.48
28935;BME280;16044;52.726;-2.108;2023-02-28T11:42:48;102558.88;;;7.18;88.77
28935;BME280;16044;52.726;-2.108;2023-02-28T11:48:22;102560.69;;;7.05;89.86
28935;BME280;16044;52.726;-2.108;2023-02-28T11:54:12;102549.53;;;6.97;93.29
28935;BME280;16044;52.726;-2.108;2023-02-28T12:03:27;102553.28;;;6.94;89.84
28935;BME280;16044;52.726;-2.108;2023-02-28T12:12:21;102543.56;;;6.92;88.00
28935;BME280;16044;52.726;-2.108;2023-02-28T12:18:11;102533.56;;;6.94;87.63
28935;BME280;16044;52.726;-2.108;2023-02-28T12:21:08;102537.22;;;6.93;87.01
28935;BME280;16044;52.726;-2.108;2023-02-28T12:23:48;102538.31;;;7.03;86.65
28935;BME280;16044;52.726;-2.108;2023-02-28T12:26:33;102536.41;;;7.05;86.01
28935;BME280;16044;52.726;-2.108;2023-02-28T12:29:33;102534.75;;;7.02;85.73
28935;BME280;16044;52.726;-2.108;2023-02-28T12:32:22;102530.78;;;7.08;84.90
28935;BME280;16044;52.726;-2.108;2023-02-28T12:35:11;102519.72;;;7.26;84.35
28935;BME280;16044;52.726;-2.108;2023-02-28T12:37:44;102514.25;;;7.40;82.75
28935;BME280;16044;52.726;-2.108;2023-02-28T12:40:20;102507.66;;;7.57;79.53
28935;BME280;16044;52.726;-2.108;2023-02-28T12:42:51;102514.69;;;7.72;79.26
28935;BME280;16044;52.726;-2.108;2023-02-28T12:45:23;102508.19;;;7.88;76.57
28935;BME280;16044;52.726;-2.108;2023-02-28T12:47:58;102498.47;;;7.98;76.47
28935;BME280;16044;52.726;-2.108;2023-02-28T12:50:29;102493.66;;;8.14;75.83
28935;BME280;16044;52.726;-2.108;2023-02-28T12:53:06;102507.78;;;8.31;76.45
28935;BME280;16044;52.726;-2.108;2023-02-28T13:10:05;102484.34;;;7.81;74.90
28935;BME280;16044;52.726;-2.108;2023-02-28T13:12:34;102475.28;;;7.70;76.15
28935;BME280;16044;52.726;-2.108;2023-02-28T13:15:24;102472.69;;;7.81;76.30
28935;BME280;16044;52.726;-2.108;2023-02-28T13:17:56;102472.69;;;7.68;76.25
28935;BME280;16044;52.726;-2.108;2023-02-28T13:20:27;102476.25;;;7.81;76.49
28935;BME280;16044;52.726;-2.108;2023-02-28T13:22:58;102475.28;;;7.70;76.20
28935;BME280;16044;52.726;-2.108;2023-02-28T13:25:50;102478.75;;;7.72;77.06
28935;BME280;16044;52.726;-2.108;2023-02-28T13:31:17;102472.78;;;7.54;78.97
28935;BME280;16044;52.726;-2.108;2023-02-28T13:38:48;102462.00;;;7.67;78.26
28935;BME280;16044;52.726;-2.108;2023-02-28T13:55:13;102456.81;;;7.76;76.31
28935;BME280;16044;52.726;-2.108;2023-02-28T14:01:16;102457.22;;;7.83;77.15
28935;BME280;16044;52.726;-2.108;2023-02-28T14:07:02;102449.88;;;7.85;77.95
28935;BME280;16044;52.726;-2.108;2023-02-28T14:09:40;102449.88;;;7.85;77.42
28935;BME280;16044;52.726;-2.108;2023-02-28T14:18:10;102433.78;;;7.96;78.36
28935;BME280;16044;52.726;-2.108;2023-02-28T14:20:47;102433.41;;;8.01;79.05
28935;BME280;16044;52.726;-2.108;2023-02-28T14:37:53;102429.69;;;7.91;77.72
28935;BME280;16044;52.726;-2.108;2023-02-28T14:40:30;102417.13;;;7.90;78.39
28935;BME280;16044;52.726;-2.108;2023-02-28T14:43:00;102415.75;;;7.84;78.80
28935;BME280;16044;52.726;-2.108;2023-02-28T14:45:32;102415.75;;;7.84;78.47
28935;BME280;16044;52.726;-2.108;2023-02-28T14:48:01;102424.38;;;7.89;79.05
28935;BME280;16044;52.726;-2.108;2023-02-28T14:50:31;102414.03;;;7.83;79.04
28935;BME280;16044;52.726;-2.108;2023-02-28T14:53:01;102416.41;;;7.75;79.12
28935;BME280;16044;52.726;-2.108;2023-02-28T14:55:32;102423.13;;;7.69;79.53
28935;BME280;16044;52.726;-2.108;2023-02-28T14:58:04;102421.41;;;7.68;80.21
28935;BME280;16044;52.726;-2.108;2023-02-28T15:00:42;102416.13;;;7.67;80.67
28935;BME280;16044;52.726;-2.108;2023-02-28T15:03:19;102416.47;;;7.62;80.83
28935;BME280;16044;52.726;-2.108;2023-02-28T15:06:02;102407.47;;;7.61;81.15
28935;BME280;16044;52.726;-2.108;2023-02-28T15:08:37;102410.91;;;7.64;81.17
28935;BME280;16044;52.726;-2.108;2023-02-28T15:13:45;102412.03;;;7.61;81.08
28935;BME280;16044;52.726;-2.108;2023-02-28T15:16:17;102407.38;;;7.63;81.06
28935;BME280;16044;52.726;-2.108;2023-02-28T15:19:20;102407.16;;;7.66;81.00
28935;BME280;16044;52.726;-2.108;2023-02-28T15:22:11;102401.66;;;7.68;81.72
28935;BME280;16044;52.726;-2.108;2023-02-28T15:24:50;102403.59;;;7.66;81.61
28935;BME280;16044;52.726;-2.108;2023-02-28T15:27:22;102397.31;;;7.65;81.56
28935;BME280;16044;52.726;-2.108;2023-02-28T15:29:59;102410.41;;;7.71;81.76